Aérodrome :
LOGIN :

S'inscrire | Disclaimer

   EN    FR    IT 

 










Légende :    VFR   VFR Marginal   IFR   IFR Intensif   IFR Très Intensif
Visi : 
Plafond : 
>= 8 km
>= 3000ft
5 à 8 km
1000 à 3000 ft
1500m à 5 km
500 à 1000 ft
800 à 1500m
200 à 500 ft
< 800m
< 200 ft
Symboles :   Orages  Brouillard  Fortes neiges  Fortes précipitations  Vent > 20 kt
SIGMETs :   Divers  Orages  Givrage  Turbulence  Onde Orograph.  Cendres Volcan.






- Altitude de l'aérodrome : 1674 ft
- Code IATA : BRN


LSZB - Bern Belp

DERNIER METAR :
  • 041420Z 28004KT 9999 -DZ FEW009 BKN011 16/14 Q1013 NOSIG

METARs EXPIRÉS :
  • 041350Z VRB03KT 9999 FEW009 BKN011 16/14 Q1013 NOSIG
  • 041320Z VRB02KT 9999 -RA SCT011 BKN050 16/13 Q1014 NOSIG
  • 041250Z VRB01KT 9999 -RA FEW009 SCT011 BKN060 16/14 Q1014 NOSIG
  • 041220Z VRB02KT 8000 -RA FEW004 BKN040 OVC070 15/14 Q1014 NOSIG
  • 041150Z VRB02KT 7000 -RA FEW012 BKN043 OVC050 15/13 Q1014 REDZ NOSIG

TAF TAF LSZB
Valide du 04 à 15h jusqu'au 05 à 00h UTC


041425Z 0415/0424 VRB02KT 9999 FEW009 SCT011 BKN055
TEMPO 0415/0421 RA BKN011
ATIS : +41 22 417 40 76



MET'MAP, la Météo Aéronautique d'un coup d'oeil ! - Copyright ORBIFLY Décembre 2007 - Disclaimer

ORBIFLY MET'MAP TEAM :

Programmation & Développement : Alexandra Zaïnal
Sur une idée originale de : Baudouin d'Aumeries
Assistance à la programmation : Marc-Olivier Méhu
Soutien technique & logistique : Manuel Goepfert

Contact : metmap@orbifly.com




SOURCES & CREDITS :

   NOAA